Time;durP1;ratioP1;P1;durP2;ratioP2;P2;SDS_P1;SDS_P2;PMS_P1;PMS_P2;Temp;Humidity;BMP_temperature;BMP_pressure;BME280_temperature;BME280_humidity;BME280_pressure;Samples;Min_cycle;Max_cycle;Signal;HPM_P1;HPM_P2
2021/04/23 00:00:48;;;;;;;3.37;2.17;;;6.80;99.90;;;;;;5090309;28;20449;-68
2021/04/23 00:03:20;;;;;;;3.17;2.30;;;6.80;99.90;;;;;;5094812;28;20469;-67
2021/04/23 00:05:47;;;;;;;1.97;1.67;;;6.60;99.90;;;;;;5086318;28;21650;-68
2021/04/23 00:08:16;;;;;;;4.20;2.33;;;6.30;99.90;;;;;;5093938;28;20543;-68
2021/04/23 00:10:44;;;;;;;5.43;2.17;;;6.20;99.90;;;;;;5091380;28;20460;-68
2021/04/23 00:13:11;;;;;;;5.33;2.17;;;6.20;99.90;;;;;;5093681;28;20484;-69
2021/04/23 00:15:38;;;;;;;3.03;2.60;;;6.10;99.90;;;;;;5089151;28;20539;-68
2021/04/23 00:18:05;;;;;;;4.50;2.83;;;6.10;99.90;;;;;;5095758;28;20886;-68
2021/04/23 00:20:32;;;;;;;5.50;2.30;;;6.10;99.90;;;;;;5099188;28;20432;-68
2021/04/23 00:23:01;;;;;;;6.40;2.13;;;6.20;99.90;;;;;;5089405;28;20452;-68
2021/04/23 00:25:29;;;;;;;2.50;2.03;;;6.20;99.90;;;;;;5089578;28;20561;-68
2021/04/23 00:27:58;;;;;;;2.97;2.63;;;6.20;99.90;;;;;;5093867;28;20798;-67
2021/04/23 00:30:26;;;;;;;6.43;4.13;;;6.10;99.90;;;;;;5093671;27;20452;-67
2021/04/23 00:32:54;;;;;;;7.00;2.10;;;6.00;99.90;;;;;;5094922;27;20460;-68
2021/04/23 00:35:22;;;;;;;4.07;2.10;;;6.00;99.90;;;;;;5095548;27;20492;-68
2021/04/23 00:37:49;;;;;;;2.70;1.80;;;6.10;99.90;;;;;;5101271;27;20480;-69
2021/04/23 00:40:19;;;;;;;5.60;2.90;;;5.80;99.90;;;;;;5100098;27;20467;-67
2021/04/23 00:42:47;;;;;;;4.63;2.20;;;5.50;99.90;;;;;;5087665;27;20469;-68
2021/04/23 00:45:16;;;;;;;6.50;3.07;;;5.50;99.90;;;;;;5089152;27;20809;-68
2021/04/23 00:47:45;;;;;;;5.20;2.27;;;5.40;99.90;;;;;;5090655;27;20948;-67
2021/04/23 00:50:14;;;;;;;2.73;2.47;;;5.50;99.90;;;;;;5093572;27;20480;-68
2021/04/23 00:52:41;;;;;;;3.73;2.60;;;5.60;99.90;;;;;;5099389;27;20559;-68
2021/04/23 00:55:09;;;;;;;3.13;2.07;;;5.30;99.90;;;;;;5073928;28;20926;-69
2021/04/23 00:57:39;;;;;;;6.67;2.80;;;5.30;99.90;;;;;;5096259;27;20479;-68
2021/04/23 01:00:08;;;;;;;4.37;2.40;;;5.40;99.90;;;;;;5100464;27;20515;-69
2021/04/23 01:02:34;;;;;;;5.90;2.70;;;5.00;99.90;;;;;;5091443;27;20569;-68
2021/04/23 01:05:01;;;;;;;1.90;1.63;;;4.50;99.90;;;;;;5078096;27;20431;-68
2021/04/23 01:07:28;;;;;;;6.40;3.00;;;4.40;99.90;;;;;;5097091;27;20532;-68
2021/04/23 01:09:54;;;;;;;21.30;3.10;;;4.60;99.90;;;;;;5058192;28;20893;-68
2021/04/23 01:12:21;;;;;;;4.03;2.20;;;4.60;99.90;;;;;;5074004;27;22061;-70
2021/04/23 01:14:49;;;;;;;4.50;2.13;;;4.80;99.90;;;;;;5083609;27;20538;-68
2021/04/23 01:17:16;;;;;;;2.20;1.67;;;4.90;99.90;;;;;;5103212;27;20428;-67
2021/04/23 01:19:43;;;;;;;4.70;2.67;;;5.00;99.90;;;;;;5104437;27;20427;-68
2021/04/23 01:22:10;;;;;;;4.73;2.60;;;5.00;99.90;;;;;;5093179;27;20469;-68
2021/04/23 01:24:37;;;;;;;5.17;2.80;;;5.10;99.90;;;;;;5100053;27;20438;-68
2021/04/23 01:27:04;;;;;;;4.83;2.03;;;5.00;99.90;;;;;;5074350;28;20449;-68
2021/04/23 01:29:31;;;;;;;17.40;2.90;;;4.90;99.90;;;;;;5096642;27;20490;-68
2021/04/23 01:31:58;;;;;;;4.53;2.20;;;4.80;99.90;;;;;;5073962;27;20924;-67
2021/04/23 01:34:27;;;;;;;10.53;3.10;;;4.80;99.90;;;;;;5082599;27;20897;-69
2021/04/23 01:36:54;;;;;;;4.27;1.77;;;4.80;99.90;;;;;;5100797;27;20435;-69
2021/04/23 01:39:25;;;;;;;10.20;2.83;;;4.70;99.90;;;;;;5090391;27;20432;-68
2021/04/23 01:41:52;;;;;;;4.73;2.97;;;4.70;99.90;;;;;;5097045;27;20428;-68
2021/04/23 01:44:19;;;;;;;2.40;2.20;;;4.80;99.90;;;;;;5100694;27;20448;-68
2021/04/23 01:46:46;;;;;;;5.13;2.60;;;4.70;99.90;;;;;;5090229;27;20443;-68
2021/04/23 01:49:15;;;;;;;3.57;2.37;;;4.70;99.90;;;;;;5078527;28;21118;-67
2021/04/23 01:51:45;;;;;;;2.67;2.37;;;4.70;99.90;;;;;;5102336;27;21578;-68
2021/04/23 01:54:12;;;;;;;3.50;2.53;;;4.70;99.90;;;;;;5097017;27;20490;-69
2021/04/23 01:56:42;;;;;;;2.40;2.13;;;4.60;99.90;;;;;;5091153;28;20427;-67
2021/04/23 01:59:10;;;;;;;8.40;4.07;;;4.30;99.90;;;;;;5097597;27;20451;-66
2021/04/23 02:01:37;;;;;;;3.27;2.00;;;4.20;99.90;;;;;;5096767;27;20528;-66
2021/04/23 02:04:10;;;;;;;3.30;2.73;;;4.20;99.90;;;;;;5094355;27;20454;-65
2021/04/23 02:06:37;;;;;;;3.53;2.13;;;4.20;99.90;;;;;;5092413;27;20527;-66
2021/04/23 02:09:06;;;;;;;2.67;2.07;;;4.30;99.90;;;;;;5096070;27;20985;-66
2021/04/23 02:11:33;;;;;;;7.10;3.67;;;4.40;99.90;;;;;;5098099;27;20468;-67
2021/04/23 02:14:01;;;;;;;3.83;2.60;;;4.40;99.90;;;;;;5087271;27;20477;-67
2021/04/23 02:16:28;;;;;;;4.67;2.07;;;4.30;99.90;;;;;;5093066;27;20540;-66
2021/04/23 02:18:55;;;;;;;2.33;1.77;;;4.30;99.90;;;;;;5091084;27;20461;-70
2021/04/23 02:21:22;;;;;;;5.83;2.13;;;4.30;99.90;;;;;;5100500;27;20939;-67
2021/04/23 02:23:53;;;;;;;6.90;2.37;;;4.10;99.90;;;;;;5099949;27;21131;-67
2021/04/23 02:26:21;;;;;;;3.63;2.60;;;4.20;99.90;;;;;;5091779;27;20806;-67
2021/04/23 02:28:49;;;;;;;4.30;2.30;;;4.30;99.90;;;;;;5097415;27;20522;-67
2021/04/23 02:31:19;;;;;;;3.10;2.77;;;4.40;99.90;;;;;;5101086;27;21440;-67
2021/04/23 02:33:49;;;;;;;8.27;2.70;;;4.30;99.90;;;;;;5099454;27;20534;-67
2021/04/23 02:36:16;;;;;;;3.67;2.00;;;4.20;99.90;;;;;;5089654;27;20867;-65
2021/04/23 02:38:43;;;;;;;3.63;1.90;;;4.20;99.90;;;;;;5091896;27;20435;-67
2021/04/23 02:41:09;;;;;;;3.10;2.57;;;4.10;99.90;;;;;;5096992;27;20464;-67
2021/04/23 02:43:38;;;;;;;4.90;2.47;;;4.00;99.90;;;;;;5092284;27;20462;-68
2021/04/23 02:46:06;;;;;;;2.83;2.27;;;4.00;99.90;;;;;;5090177;27;20552;-66
2021/04/23 02:48:37;;;;;;;5.37;3.70;;;4.00;99.90;;;;;;5086631;27;20465;-67
2021/04/23 02:51:06;;;;;;;2.53;1.83;;;4.00;99.90;;;;;;5090714;27;20541;-67
2021/04/23 02:53:34;;;;;;;4.47;2.90;;;4.00;99.90;;;;;;5089381;27;20573;-68
2021/04/23 02:56:01;;;;;;;4.13;2.60;;;4.00;99.90;;;;;;5089688;27;20467;-67
2021/04/23 02:58:29;;;;;;;2.77;1.80;;;3.90;99.90;;;;;;5091962;27;20451;-66
2021/04/23 03:00:59;;;;;;;3.87;2.43;;;3.90;99.90;;;;;;5101633;27;21413;-66
2021/04/23 03:03:27;;;;;;;3.70;2.27;;;3.90;99.90;;;;;;5100812;27;20873;-67
2021/04/23 03:05:58;;;;;;;8.17;4.20;;;3.80;99.90;;;;;;5096309;28;20859;-65
2021/04/23 03:08:26;;;;;;;3.77;2.80;;;3.80;99.90;;;;;;5098681;27;20453;-66
2021/04/23 03:10:56;;;;;;;3.60;3.30;;;3.70;99.90;;;;;;5092971;27;20811;-66
2021/04/23 03:13:27;;;;;;;4.23;2.10;;;3.80;99.90;;;;;;5104691;27;20468;-67
2021/04/23 03:15:56;;;;;;;5.40;3.03;;;3.80;99.90;;;;;;5092509;27;20935;-65
2021/04/23 03:18:24;;;;;;;2.50;2.30;;;3.70;99.90;;;;;;5091555;28;20501;-67
2021/04/23 03:20:53;;;;;;;3.10;2.73;;;3.70;99.90;;;;;;5095290;28;20478;-67
2021/04/23 03:23:21;;;;;;;3.80;2.70;;;3.70;99.90;;;;;;5101072;27;20461;-67
2021/04/23 03:25:48;;;;;;;3.57;2.23;;;3.60;99.90;;;;;;5093876;28;20459;-66
2021/04/23 03:28:18;;;;;;;6.90;2.30;;;3.40;99.90;;;;;;5095856;27;20524;-66
2021/04/23 03:30:45;;;;;;;3.97;2.30;;;3.30;99.90;;;;;;5098460;27;20415;-66
2021/04/23 03:33:15;;;;;;;6.77;2.83;;;3.10;99.90;;;;;;5095310;27;20480;-66
2021/04/23 03:35:44;;;;;;;3.60;2.00;;;3.00;99.90;;;;;;5106394;27;20509;-67
2021/04/23 03:38:11;;;;;;;6.77;3.50;;;3.00;99.90;;;;;;5098975;27;20474;-66
2021/04/23 03:40:41;;;;;;;17.77;3.27;;;3.10;99.90;;;;;;5101075;27;20943;-66
2021/04/23 03:43:09;;;;;;;6.57;3.43;;;3.00;99.90;;;;;;5097858;28;21072;-65
2021/04/23 03:45:36;;;;;;;6.17;2.90;;;3.00;99.90;;;;;;5093995;27;20431;-67
2021/04/23 03:48:04;;;;;;;3.37;2.40;;;3.30;99.90;;;;;;5096019;27;20480;-68
2021/04/23 03:50:34;;;;;;;9.40;3.00;;;3.20;99.90;;;;;;5093054;28;20462;-67
2021/04/23 03:53:04;;;;;;;3.63;2.60;;;3.10;99.90;;;;;;5088654;28;20485;-67
2021/04/23 03:55:33;;;;;;;2.90;1.97;;;3.20;99.90;;;;;;5096605;28;20500;-69
2021/04/23 03:58:03;;;;;;;11.37;2.80;;;3.10;99.90;;;;;;5097884;28;20531;-67
2021/04/23 04:00:36;;;;;;;2.93;2.43;;;3.00;99.90;;;;;;5091086;28;20992;-66
2021/04/23 04:03:04;;;;;;;5.50;4.40;;;2.90;99.90;;;;;;5096697;27;20486;-66
2021/04/23 04:05:31;;;;;;;3.10;2.13;;;3.20;99.90;;;;;;5097415;27;20532;-68
2021/04/23 04:07:58;;;;;;;4.10;2.90;;;3.30;99.90;;;;;;5081102;27;20704;-67
2021/04/23 04:10:25;;;;;;;9.27;2.47;;;3.40;99.90;;;;;;5085121;27;20461;-68
2021/04/23 04:12:52;;;;;;;9.73;3.20;;;3.30;99.90;;;;;;5109027;27;20495;-66
2021/04/23 04:15:19;;;;;;;3.30;2.70;;;3.30;99.90;;;;;;5111769;27;20563;-67
2021/04/23 04:17:46;;;;;;;11.00;2.93;;;3.30;99.90;;;;;;5106402;27;20431;-67
2021/04/23 04:20:14;;;;;;;3.73;2.60;;;3.30;99.90;;;;;;5112440;27;20481;-67
2021/04/23 04:22:41;;;;;;;9.20;3.13;;;3.20;99.90;;;;;;5112387;27;20483;-66
2021/04/23 04:25:11;;;;;;;4.83;3.03;;;3.30;99.90;;;;;;5110118;27;20715;-66
2021/04/23 04:27:37;;;;;;;3.17;1.90;;;3.30;99.90;;;;;;5114652;27;20551;-67
2021/04/23 04:30:05;;;;;;;8.50;2.00;;;3.20;99.90;;;;;;5113719;27;20460;-66
2021/04/23 04:32:33;;;;;;;5.03;3.57;;;3.20;99.90;;;;;;5106152;27;20882;-68
2021/04/23 04:35:00;;;;;;;6.07;2.20;;;3.30;99.90;;;;;;5088632;28;20824;-66
2021/04/23 04:37:26;;;;;;;6.70;3.20;;;3.30;99.90;;;;;;5105729;27;20431;-67
2021/04/23 04:39:53;;;;;;;5.67;4.10;;;3.30;99.90;;;;;;5103716;27;20834;-68
2021/04/23 04:42:20;;;;;;;5.20;3.10;;;3.30;99.90;;;;;;5089316;27;20816;-67
2021/04/23 04:44:47;;;;;;;2.90;2.60;;;3.30;99.90;;;;;;5083650;28;20476;-68
2021/04/23 04:47:14;;;;;;;4.60;3.33;;;3.20;99.90;;;;;;5097881;27;20886;-67
2021/04/23 04:49:42;;;;;;;7.90;4.70;;;3.00;99.90;;;;;;5094812;27;20423;-67
2021/04/23 04:52:09;;;;;;;8.37;3.07;;;3.00;99.90;;;;;;5095996;27;20557;-67
2021/04/23 04:54:35;;;;;;;5.10;2.77;;;3.20;99.90;;;;;;5075889;27;20535;-67
2021/04/23 04:57:02;;;;;;;14.60;3.57;;;3.20;99.90;;;;;;5077239;28;20601;-67
2021/04/23 04:59:29;;;;;;;6.83;3.33;;;3.30;99.90;;;;;;5087862;27;20478;-67
2021/04/23 05:01:56;;;;;;;8.93;3.50;;;3.30;99.90;;;;;;5075339;28;21032;-67
2021/04/23 05:04:23;;;;;;;5.90;4.00;;;3.40;99.90;;;;;;5059099;27;20444;-67
2021/04/23 05:06:51;;;;;;;9.10;3.33;;;3.60;99.90;;;;;;5082108;28;20518;-68
2021/04/23 05:09:17;;;;;;;5.60;4.10;;;3.80;99.90;;;;;;5104829;27;20442;-68
2021/04/23 05:11:44;;;;;;;8.80;4.53;;;4.00;99.90;;;;;;5060848;27;20461;-67
2021/04/23 05:14:11;;;;;;;10.07;3.97;;;4.00;99.90;;;;;;5094309;27;20543;-67
2021/04/23 05:16:37;;;;;;;9.20;5.60;;;4.20;99.90;;;;;;5090453;27;20489;-67
2021/04/23 05:19:04;;;;;;;3.50;3.20;;;4.30;99.90;;;;;;5094349;27;20941;-67
2021/04/23 05:21:31;;;;;;;7.50;3.53;;;4.50;99.90;;;;;;5109432;27;20457;-66
2021/04/23 05:23:59;;;;;;;5.60;3.37;;;4.90;99.90;;;;;;5110085;27;20451;-66
2021/04/23 05:26:26;;;;;;;4.70;2.90;;;5.00;99.90;;;;;;5108848;27;20491;-67
2021/04/23 05:28:53;;;;;;;9.50;3.67;;;5.40;99.90;;;;;;5082847;28;20449;-66
2021/04/23 05:31:20;;;;;;;9.60;3.87;;;5.60;99.90;;;;;;5080931;27;20450;-67
2021/04/23 05:33:47;;;;;;;4.30;2.30;;;5.80;99.90;;;;;;5056383;27;21334;-67
2021/04/23 05:36:13;;;;;;;11.73;6.20;;;6.50;99.90;;;;;;5076392;28;20432;-67
2021/04/23 05:38:40;;;;;;;6.27;3.70;;;7.10;99.90;;;;;;5102353;27;20442;-68
2021/04/23 05:41:07;;;;;;;6.17;3.40;;;6.90;99.90;;;;;;5078210;28;20428;-67
2021/04/23 05:43:34;;;;;;;4.90;3.10;;;7.60;99.90;;;;;;5109928;27;20463;-68
2021/04/23 05:46:01;;;;;;;10.70;4.40;;;8.20;99.90;;;;;;5078358;28;20450;-67
2021/04/23 05:48:27;;;;;;;10.83;3.90;;;8.50;99.90;;;;;;5095391;27;20439;-67
2021/04/23 05:50:54;;;;;;;10.20;4.17;;;9.10;99.90;;;;;;5094054;27;20467;-68
2021/04/23 05:53:21;;;;;;;9.07;4.77;;;9.10;99.90;;;;;;5092944;28;21070;-68
2021/04/23 05:55:48;;;;;;;12.50;4.80;;;9.20;99.90;;;;;;5088137;27;20498;-69
2021/04/23 05:58:16;;;;;;;5.70;4.10;;;9.40;99.90;;;;;;5095152;27;20867;-67
2021/04/23 06:00:43;;;;;;;5.07;3.67;;;10.00;99.90;;;;;;5088642;27;20432;-68
2021/04/23 06:03:11;;;;;;;17.80;4.07;;;10.40;99.90;;;;;;5089494;27;21251;-67
2021/04/23 06:05:37;;;;;;;9.77;4.60;;;10.60;99.90;;;;;;5095873;27;20427;-67
2021/04/23 06:08:06;;;;;;;5.10;3.70;;;10.50;99.90;;;;;;5090493;27;20567;-67
2021/04/23 06:10:34;;;;;;;6.57;4.70;;;10.50;99.90;;;;;;5092248;27;20941;-67
2021/04/23 06:13:01;;;;;;;7.60;4.20;;;10.60;99.90;;;;;;5091662;27;20465;-68
2021/04/23 06:15:29;;;;;;;8.03;4.37;;;11.00;99.90;;;;;;5088745;28;20480;-67
2021/04/23 06:17:56;;;;;;;8.30;3.00;;;11.40;99.90;;;;;;5096058;27;20449;-68
2021/04/23 06:20:25;;;;;;;5.07;3.30;;;12.00;99.90;;;;;;5103099;27;20487;-68
2021/04/23 06:22:52;;;;;;;5.10;3.30;;;12.30;99.90;;;;;;5108546;27;20508;-68
2021/04/23 06:25:20;;;;;;;6.90;3.10;;;12.50;99.90;;;;;;5091643;28;20475;-67
2021/04/23 06:27:50;;;;;;;8.93;4.33;;;12.30;99.90;;;;;;5094253;27;20466;-67
2021/04/23 06:30:19;;;;;;;6.10;2.57;;;12.60;99.90;;;;;;5102343;27;20518;-67
2021/04/23 06:32:46;;;;;;;4.17;2.83;;;12.60;99.90;;;;;;5100733;27;20560;-66
2021/04/23 06:35:17;;;;;;;7.60;3.53;;;13.00;99.90;;;;;;5099372;27;20476;-67
2021/04/23 06:37:44;;;;;;;4.87;3.93;;;12.90;99.90;;;;;;5097156;27;20543;-66
2021/04/23 06:40:12;;;;;;;10.97;4.17;;;13.00;99.90;;;;;;5105879;27;20461;-66
2021/04/23 06:42:39;;;;;;;7.00;3.10;;;13.30;99.90;;;;;;5099837;27;20477;-67
2021/04/23 06:45:08;;;;;;;10.30;4.07;;;13.40;99.90;;;;;;5087759;28;20979;-67
2021/04/23 06:47:36;;;;;;;3.90;2.60;;;13.70;99.90;;;;;;5087653;28;20888;-67
2021/04/23 06:50:07;;;;;;;4.73;2.00;;;12.80;99.90;;;;;;5090203;27;20586;-67
2021/04/23 06:52:33;;;;;;;3.13;2.33;;;12.70;99.90;;;;;;5094816;27;20567;-69
2021/04/23 06:55:00;;;;;;;4.40;3.20;;;13.00;99.90;;;;;;5088148;27;20630;-67
2021/04/23 06:57:27;;;;;;;12.93;3.40;;;13.40;99.90;;;;;;5092042;27;20550;-67
2021/04/23 06:59:54;;;;;;;8.07;3.37;;;14.10;99.90;;;;;;5090624;27;20454;-67
2021/04/23 07:02:23;;;;;;;7.63;2.77;;;14.40;99.90;;;;;;5104326;27;20897;-67
2021/04/23 07:04:50;;;;;;;5.10;2.73;;;14.90;99.90;;;;;;5061011;28;20456;-67
2021/04/23 07:07:17;;;;;;;3.67;2.13;;;14.70;99.90;;;;;;5102124;27;20480;-66
2021/04/23 07:09:44;;;;;;;6.00;3.07;;;14.70;99.90;;;;;;5099106;27;20458;-67
2021/04/23 07:12:11;;;;;;;4.30;2.77;;;14.60;99.90;;;;;;5097186;27;20461;-66
2021/04/23 07:14:37;;;;;;;5.07;2.33;;;14.80;99.90;;;;;;5069745;28;20478;-68
2021/04/23 07:17:04;;;;;;;2.33;2.13;;;14.80;99.90;;;;;;5087297;27;20457;-67
2021/04/23 07:19:31;;;;;;;9.77;4.40;;;14.90;98.90;;;;;;5098302;27;20871;-66
2021/04/23 07:21:58;;;;;;;4.23;2.50;;;14.50;98.20;;;;;;5106885;27;20458;-67
2021/04/23 07:24:25;;;;;;;7.07;1.63;;;14.20;98.90;;;;;;5086175;28;20509;-67
2021/04/23 07:26:52;;;;;;;3.27;1.70;;;14.20;98.50;;;;;;5094707;27;20992;-67
2021/04/23 07:29:18;;;;;;;3.00;1.83;;;13.80;99.30;;;;;;5082135;28;20863;-68
2021/04/23 07:31:45;;;;;;;6.37;2.17;;;14.50;97.80;;;;;;5097524;28;20476;-67
2021/04/23 07:34:12;;;;;;;9.13;4.00;;;14.60;97.20;;;;;;5101133;28;20480;-68
2021/04/23 07:36:38;;;;;;;4.20;2.47;;;14.20;97.00;;;;;;5107475;27;20544;-67
2021/04/23 07:39:10;;;;;;;3.57;1.77;;;13.50;97.60;;;;;;5102361;28;20455;-67
2021/04/23 07:41:38;;;;;;;9.87;2.93;;;13.00;98.90;;;;;;5086086;27;21195;-67
2021/04/23 07:44:05;;;;;;;4.73;2.20;;;12.40;99.90;;;;;;5089758;28;20473;-66
2021/04/23 07:46:32;;;;;;;2.33;2.13;;;12.10;99.90;;;;;;5093464;28;20473;-66
2021/04/23 07:48:58;;;;;;;3.63;1.80;;;11.60;99.90;;;;;;5091093;28;20456;-68
2021/04/23 07:51:25;;;;;;;5.67;2.13;;;11.40;99.90;;;;;;5090747;28;20504;-67
2021/04/23 07:53:52;;;;;;;3.30;2.17;;;11.10;99.90;;;;;;5092181;28;20472;-66
2021/04/23 07:56:18;;;;;;;4.80;2.50;;;11.10;99.90;;;;;;5089197;28;20521;-66
2021/04/23 07:58:46;;;;;;;2.70;2.00;;;11.00;99.90;;;;;;5074964;28;20551;-66
2021/04/23 08:01:12;;;;;;;4.43;2.20;;;10.90;99.90;;;;;;5093482;28;20488;-66
2021/04/23 08:03:39;;;;;;;3.90;2.47;;;11.20;99.90;;;;;;5078296;28;20455;-66
2021/04/23 08:06:06;;;;;;;4.03;2.23;;;11.00;99.90;;;;;;5069293;28;20454;-66
2021/04/23 08:08:32;;;;;;;1.87;1.40;;;11.10;99.90;;;;;;5070650;28;20495;-67
2021/04/23 08:10:59;;;;;;;3.20;1.80;;;10.80;99.90;;;;;;5092770;28;20484;-67
2021/04/23 08:13:25;;;;;;;6.13;1.33;;;10.70;99.90;;;;;;5093035;28;20481;-67
2021/04/23 08:15:53;;;;;;;3.33;1.60;;;10.70;99.90;;;;;;5073471;28;20580;-67
2021/04/23 08:18:20;;;;;;;2.13;1.73;;;10.60;99.90;;;;;;5087559;28;20440;-67
2021/04/23 08:20:48;;;;;;;7.83;2.13;;;10.80;99.90;;;;;;5077834;28;21139;-69
2021/04/23 08:23:14;;;;;;;1.87;1.70;;;10.90;99.90;;;;;;5093001;28;20472;-67
2021/04/23 08:25:41;;;;;;;2.37;1.57;;;12.50;99.90;;;;;;5090994;28;20453;-65
2021/04/23 08:28:07;;;;;;;2.10;1.77;;;14.20;99.20;;;;;;5087181;28;20486;-67
2021/04/23 08:30:35;;;;;;;2.83;1.70;;;15.60;94.10;;;;;;5089649;28;20453;-66
2021/04/23 08:33:02;;;;;;;3.37;2.30;;;17.50;90.60;;;;;;5090212;28;20508;-67
2021/04/23 08:35:29;;;;;;;5.40;3.33;;;18.40;83.20;;;;;;5088248;28;20996;-66
2021/04/23 08:37:56;;;;;;;6.77;2.47;;;18.60;76.10;;;;;;5085426;28;20521;-68
2021/04/23 08:40:23;;;;;;;3.20;2.00;;;19.50;71.70;;;;;;5087976;28;20453;-67
2021/04/23 08:42:52;;;;;;;10.77;2.33;;;18.90;70.80;;;;;;5102368;28;20492;-65
2021/04/23 08:45:20;;;;;;;3.50;2.73;;;17.80;72.00;;;;;;5093736;28;20476;-66
2021/04/23 08:47:48;;;;;;;2.50;2.30;;;15.70;77.00;;;;;;5093670;28;20457;-66
2021/04/23 08:50:16;;;;;;;3.60;2.20;;;15.70;82.50;;;;;;5092292;27;20456;-66
2021/04/23 08:52:44;;;;;;;3.90;2.33;;;16.30;82.50;;;;;;5096926;27;20500;-66
2021/04/23 08:55:13;;;;;;;2.93;1.73;;;16.90;81.20;;;;;;5103992;27;20503;-66
2021/04/23 08:57:40;;;;;;;4.57;2.33;;;17.70;76.80;;;;;;5110498;27;20481;-67
2021/04/23 09:00:09;;;;;;;3.60;2.00;;;18.90;71.20;;;;;;5105900;27;20469;-67
2021/04/23 09:02:36;;;;;;;4.57;2.97;;;19.10;72.40;;;;;;5099728;27;20517;-67
2021/04/23 09:05:04;;;;;;;7.03;2.30;;;19.80;67.90;;;;;;5099203;27;20482;-67
2021/04/23 09:07:32;;;;;;;6.27;3.17;;;21.00;65.80;;;;;;5090556;27;20543;-67
2021/04/23 09:10:08;;;;;;;9.50;2.47;;;21.00;61.40;;;;;;5096452;27;20531;-68
2021/04/23 09:12:34;;;;;;;7.10;2.00;;;21.20;61.80;;;;;;5096645;27;20480;-67
2021/04/23 09:15:02;;;;;;;3.57;2.00;;;21.40;58.70;;;;;;5111351;27;20469;-67
2021/04/23 09:17:30;;;;;;;5.13;2.37;;;20.40;60.00;;;;;;5100165;27;20464;-68
2021/04/23 09:19:58;;;;;;;4.23;2.13;;;19.10;59.10;;;;;;5101793;27;20462;-67
2021/04/23 09:22:27;;;;;;;7.03;3.50;;;19.40;65.00;;;;;;5098809;27;20551;-66
2021/04/23 09:25:04;;;;;;;3.77;2.10;;;19.90;59.20;;;;;;5086250;27;20467;-67
2021/04/23 09:27:32;;;;;;;4.90;2.03;;;20.00;59.20;;;;;;5087269;27;20933;-68
2021/04/23 09:30:01;;;;;;;3.50;2.23;;;21.20;57.60;;;;;;5094517;27;20640;-66
2021/04/23 09:32:30;;;;;;;7.30;2.50;;;21.10;56.70;;;;;;5100634;27;21007;-68
2021/04/23 09:34:59;;;;;;;2.77;1.90;;;20.20;58.40;;;;;;5094454;27;20525;-69
2021/04/23 09:37:28;;;;;;;3.33;2.43;;;19.40;57.30;;;;;;5099291;27;21021;-67
2021/04/23 09:40:12;;;;;;;11.30;2.40;;;18.50;59.30;;;;;;5097035;28;26676;-68
2021/04/23 09:42:47;;;;;;;6.90;2.53;;;18.60;58.30;;;;;;5104632;28;20476;-67
2021/04/23 09:45:15;;;;;;;4.90;2.50;;;19.10;56.70;;;;;;5102120;27;20617;-67
2021/04/23 09:47:42;;;;;;;3.37;2.00;;;19.80;57.80;;;;;;5093428;27;20485;-67
2021/04/23 09:50:09;;;;;;;5.73;2.20;;;19.80;56.40;;;;;;5085775;28;20457;-67
2021/04/23 09:52:48;;;;;;;3.67;2.13;;;20.00;57.00;;;;;;5097624;27;22141;-68
2021/04/23 09:55:16;;;;;;;3.83;2.50;;;20.40;56.70;;;;;;5092353;27;20468;-67
2021/04/23 09:57:49;;;;;;;5.47;3.60;;;20.00;55.80;;;;;;5100891;27;20988;-68
2021/04/23 10:00:17;;;;;;;4.70;2.13;;;20.90;56.60;;;;;;5090899;27;20445;-67
2021/04/23 10:02:50;;;;;;;3.73;2.30;;;20.90;55.40;;;;;;5092763;27;20512;-67
2021/04/23 10:05:29;;;;;;;3.97;2.60;;;19.90;54.30;;;;;;5098710;27;20503;-67
2021/04/23 10:07:56;;;;;;;7.60;2.90;;;20.30;57.20;;;;;;5099984;27;20533;-67
2021/04/23 10:10:24;;;;;;;9.67;2.50;;;22.10;57.50;;;;;;5080124;27;20534;-68
2021/04/23 10:12:53;;;;;;;4.50;2.80;;;21.80;56.00;;;;;;5069339;28;20485;-67
2021/04/23 10:15:21;;;;;;;7.10;3.20;;;21.10;54.90;;;;;;5090441;28;20482;-68
2021/04/23 10:17:50;;;;;;;2.83;2.40;;;20.40;54.60;;;;;;5094917;27;20535;-68
2021/04/23 10:20:21;;;;;;;3.27;2.10;;;19.00;55.70;;;;;;5092061;27;20456;-68
2021/04/23 10:22:48;;;;;;;3.07;1.60;;;19.20;56.40;;;;;;5102809;27;20546;-68
2021/04/23 10:25:15;;;;;;;3.80;2.13;;;20.10;55.40;;;;;;5103651;27;20480;-68
2021/04/23 10:27:45;;;;;;;5.90;2.17;;;19.60;54.90;;;;;;5079630;28;20465;-68
2021/04/23 10:30:14;;;;;;;3.30;1.97;;;19.70;54.40;;;;;;5088808;27;20457;-67
2021/04/23 10:32:42;;;;;;;6.17;2.67;;;21.00;55.40;;;;;;5098220;27;20683;-69
2021/04/23 10:35:10;;;;;;;4.50;2.17;;;22.10;53.80;;;;;;5087581;27;20527;-69
2021/04/23 10:37:37;;;;;;;4.73;3.37;;;21.90;52.70;;;;;;5086970;27;20458;-69
2021/04/23 10:40:04;;;;;;;3.97;2.40;;;21.90;52.30;;;;;;5094592;27;20503;-68
2021/04/23 10:42:50;;;;;;;4.90;2.90;;;22.10;52.40;;;;;;5096236;27;20559;-69
2021/04/23 10:45:27;;;;;;;3.27;2.73;;;23.70;52.80;;;;;;5102945;27;20479;-68
2021/04/23 10:47:55;;;;;;;4.20;2.30;;;24.70;51.90;;;;;;5088585;27;20822;-68
2021/04/23 10:50:24;;;;;;;6.20;2.97;;;24.60;49.30;;;;;;5098018;27;20476;-69
2021/04/23 10:53:02;;;;;;;3.50;2.57;;;23.40;48.90;;;;;;5099151;28;20659;-69
2021/04/23 10:55:51;;;;;;;4.47;3.17;;;23.80;51.20;;;;;;5092240;27;20509;-68
2021/04/23 10:58:36;;;;;;;8.50;3.60;;;23.10;48.50;;;;;;5095874;27;20485;-67
2021/04/23 11:01:19;;;;;;;7.07;2.93;;;23.50;50.90;;;;;;5092089;27;20452;-66
2021/04/23 11:04:02;;;;;;;6.20;2.70;;;24.20;48.50;;;;;;5101140;27;20482;-68
2021/04/23 11:06:30;;;;;;;5.67;2.83;;;24.10;48.30;;;;;;5103567;27;20545;-68
2021/04/23 11:09:07;;;;;;;8.03;2.77;;;23.70;48.50;;;;;;5100590;27;20449;-67
2021/04/23 11:11:37;;;;;;;4.50;2.17;;;23.00;49.50;;;;;;5107627;27;20961;-67
2021/04/23 11:14:35;;;;;;;5.10;3.13;;;22.70;47.80;;;;;;5090979;28;20968;-69
2021/04/23 11:17:31;;;;;;;2.50;2.30;;;21.90;48.70;;;;;;5050695;27;20460;-69
2021/04/23 11:20:21;;;;;;;3.43;2.30;;;22.50;49.80;;;;;;5087301;27;20977;-68
2021/04/23 11:22:54;;;;;;;6.47;2.73;;;23.20;49.50;;;;;;5101040;28;20923;-67
2021/04/23 11:25:21;;;;;;;4.90;2.70;;;23.00;48.30;;;;;;5091511;27;20444;-68
2021/04/23 11:28:10;;;;;;;4.87;2.67;;;23.50;48.50;;;;;;5093416;27;21336;-69
2021/04/23 11:31:01;;;;;;;4.30;2.87;;;24.30;48.30;;;;;;5086284;28;20541;-68
2021/04/23 11:33:51;;;;;;;3.07;2.20;;;24.30;49.10;;;;;;5092879;27;20737;-68
2021/04/23 11:36:26;;;;;;;3.13;2.43;;;23.50;47.60;;;;;;5096929;28;20480;-69
2021/04/23 11:38:55;;;;;;;7.20;3.40;;;23.50;49.00;;;;;;5094178;28;20488;-68
2021/04/23 11:41:22;;;;;;;4.47;2.73;;;23.20;48.10;;;;;;5091021;28;20485;-68
2021/04/23 11:43:48;;;;;;;6.67;2.90;;;23.60;48.40;;;;;;5083826;27;20477;-68
2021/04/23 11:46:15;;;;;;;3.10;2.77;;;23.40;47.50;;;;;;5076254;27;20512;-69
2021/04/23 11:48:50;;;;;;;5.00;2.63;;;22.90;48.10;;;;;;5071878;28;20453;-69
2021/04/23 11:51:17;;;;;;;5.00;2.60;;;23.60;46.60;;;;;;5090194;28;20448;-68
2021/04/23 11:53:48;;;;;;;7.53;2.57;;;24.90;47.10;;;;;;5099350;28;20600;-69
2021/04/23 11:56:16;;;;;;;3.57;2.20;;;25.10;46.60;;;;;;5101844;28;20512;-69
2021/04/23 11:58:45;;;;;;;5.53;2.50;;;24.60;46.40;;;;;;5091291;28;20453;-68
2021/04/23 12:01:12;;;;;;;11.43;4.47;;;24.00;47.10;;;;;;5091642;28;20554;-69
2021/04/23 12:03:46;;;;;;;4.23;3.10;;;24.10;46.80;;;;;;5095999;28;20585;-66
2021/04/23 12:06:13;;;;;;;4.57;2.97;;;24.00;47.50;;;;;;5106260;28;20448;-68
2021/04/23 12:08:39;;;;;;;4.70;2.67;;;23.30;47.30;;;;;;5073124;28;20455;-67
2021/04/23 12:11:08;;;;;;;4.10;2.27;;;23.20;47.90;;;;;;5071189;28;20466;-67
2021/04/23 12:13:37;;;;;;;5.17;2.80;;;24.30;44.80;;;;;;5094422;28;20545;-68
2021/04/23 12:16:06;;;;;;;7.17;3.17;;;23.50;46.60;;;;;;5090617;28;20472;-67
2021/04/23 12:18:33;;;;;;;9.97;2.90;;;23.70;45.90;;;;;;5092966;28;20465;-67
2021/04/23 12:21:01;;;;;;;5.67;2.90;;;24.30;45.40;;;;;;5092507;28;21179;-67
2021/04/23 12:23:30;;;;;;;4.63;2.80;;;24.40;45.70;;;;;;5098136;28;20541;-68
2021/04/23 12:25:59;;;;;;;2.87;2.40;;;24.40;46.20;;;;;;5099200;27;20486;-67
2021/04/23 12:28:29;;;;;;;5.53;3.00;;;24.80;46.60;;;;;;5107238;27;20469;-68
2021/04/23 12:31:06;;;;;;;4.97;2.60;;;25.20;45.80;;;;;;5105220;28;20531;-68
2021/04/23 12:33:37;;;;;;;8.70;3.00;;;24.70;44.40;;;;;;5109145;27;20456;-69
2021/04/23 12:36:15;;;;;;;6.53;3.03;;;24.30;45.70;;;;;;5098485;27;20477;-67
2021/04/23 12:38:43;;;;;;;3.97;3.00;;;25.50;44.10;;;;;;5103950;27;20495;-69
2021/04/23 12:41:19;;;;;;;6.93;2.23;;;24.90;45.00;;;;;;5102588;27;20456;-68
2021/04/23 12:43:46;;;;;;;14.33;3.47;;;24.70;44.40;;;;;;5114839;27;20590;-67
2021/04/23 12:46:22;;;;;;;3.60;2.67;;;23.70;44.90;;;;;;5109860;27;20932;-68
2021/04/23 12:49:02;;;;;;;2.80;2.17;;;23.70;45.20;;;;;;5103144;27;20460;-68
2021/04/23 12:51:30;;;;;;;7.60;3.00;;;24.70;44.40;;;;;;5108176;27;20527;-69
2021/04/23 12:53:58;;;;;;;3.97;2.80;;;24.80;43.40;;;;;;5109033;27;20488;-67
2021/04/23 12:56:30;;;;;;;8.73;3.63;;;25.20;42.80;;;;;;5110872;27;20995;-68
2021/04/23 12:58:57;;;;;;;5.87;3.30;;;25.50;43.40;;;;;;5114963;27;20595;-69